Angler Guide Weather for Mont Joli -
Mont Joli, Québec Current Weather Conditions
Enter your "Place, State", US Zip Code or ICAO:  
Forecast Information Radar Information
Mont Joli, Québec, Canada  Lat: 48.62N, Lon: 68.22W
ICAO Used: CYBC
Current Conditions
Updated:
Sun & Moon Information:
Temp: N/A
Humidity: N/A
Wind Speed: N/A
Barometer: N/A
Dewpoint: N/A
Heat Index: N/A
Wind Chill: N/A
Civil Twilight: 6:25 AM EDT
Moonrise: 6:29 AM EDT Moon Phase:
New Moon
New Moon
Moonset: 5:59 PM EDT
Sunrise: 6:57 AM EDT
Sunset: 5:36 PM EDT
Civil Twilight: 6:08 PM EDT
Forecast for Mont Joli, QC:
(Forecast based on TAF for )
0339 PM EDT MON NOV 06 2006
  
AFTERNOONEVENINGOVERNIGHT
PARTLY CLOUDYPARTLY CLOUDYPARTLY CLOUDY.+SHOWER
Partly
Cloudy
Partly
Cloudy
Partly
Cloudy.+Shower
TAF based forecast:
Dated: 0339 PM EDT MON NOV 06 2006
Afternoon...Partly cloudy with winds from the south at 6 mph.
Evening...Partly cloudy with winds from the south at 6 mph.
Overnight...Partly cloudy with winds from the south at 6 mph. Then turning mostly cloudy with winds from the south at 9 mph. Then turning mostly cloudy with winds from the south south east at 12 mph. Possible periods of overcast with light showers,rain,snow and mist.
Original Encoded TAF:
Dated: 0339 PM EDT MON NOV 06 2006
2006/11/06 19:39
CYBC 061939Z 062008 19005KT P6SM FEW040 FM0200Z 19008KT P6SM BKN030 FM0700Z 20010KT P6SM BKN025 TEMPO 0708 5SM -SHRASN BR OVC020=




Powered by Angler Guide.com
Copyright © 2007, all rights reserved.